sensor_id;sensor_type;location;lat;lon;timestamp;P1;durP1;ratioP1;P2;durP2;ratioP2
70132;SDS011;57495;49.922;7.966;2023-04-03T00:01:20;5.57;;;1.40;;
70132;SDS011;57495;49.922;7.966;2023-04-03T00:03:21;5.55;;;1.38;;
70132;SDS011;57495;49.922;7.966;2023-04-03T00:05:23;3.60;;;1.30;;
70132;SDS011;57495;49.922;7.966;2023-04-03T00:07:26;4.35;;;1.05;;
70132;SDS011;57495;49.922;7.966;2023-04-03T00:09:28;4.03;;;1.20;;
70132;SDS011;57495;49.922;7.966;2023-04-03T00:11:29;3.65;;;1.13;;
70132;SDS011;57495;49.922;7.966;2023-04-03T00:13:30;4.05;;;1.33;;
70132;SDS011;57495;49.922;7.966;2023-04-03T00:15:33;4.32;;;1.40;;
70132;SDS011;57495;49.922;7.966;2023-04-03T00:17:35;4.38;;;1.45;;
70132;SDS011;57495;49.922;7.966;2023-04-03T00:19:36;4.70;;;1.27;;
70132;SDS011;57495;49.922;7.966;2023-04-03T00:21:38;4.10;;;1.33;;
70132;SDS011;57495;49.922;7.966;2023-04-03T00:23:41;4.72;;;1.60;;
70132;SDS011;57495;49.922;7.966;2023-04-03T00:25:43;4.47;;;1.27;;
70132;SDS011;57495;49.922;7.966;2023-04-03T00:27:44;5.60;;;1.38;;
70132;SDS011;57495;49.922;7.966;2023-04-03T00:29:46;5.57;;;1.90;;
70132;SDS011;57495;49.922;7.966;2023-04-03T00:31:48;3.85;;;1.30;;
70132;SDS011;57495;49.922;7.966;2023-04-03T00:33:49;4.45;;;1.63;;
70132;SDS011;57495;49.922;7.966;2023-04-03T00:35:51;3.50;;;1.40;;
70132;SDS011;57495;49.922;7.966;2023-04-03T00:37:52;3.53;;;1.42;;
70132;SDS011;57495;49.922;7.966;2023-04-03T00:39:57;4.70;;;1.20;;
70132;SDS011;57495;49.922;7.966;2023-04-03T00:41:58;3.63;;;1.20;;
70132;SDS011;57495;49.922;7.966;2023-04-03T00:44:00;3.92;;;1.48;;
70132;SDS011;57495;49.922;7.966;2023-04-03T00:46:01;3.95;;;1.00;;
70132;SDS011;57495;49.922;7.966;2023-04-03T00:48:03;3.72;;;1.10;;
70132;SDS011;57495;49.922;7.966;2023-04-03T00:50:07;4.50;;;1.23;;
70132;SDS011;57495;49.922;7.966;2023-04-03T00:52:10;4.18;;;1.00;;
70132;SDS011;57495;49.922;7.966;2023-04-03T00:54:16;2.95;;;1.00;;
70132;SDS011;57495;49.922;7.966;2023-04-03T00:56:19;3.45;;;1.42;;
70132;SDS011;57495;49.922;7.966;2023-04-03T00:58:26;3.60;;;1.10;;
70132;SDS011;57495;49.922;7.966;2023-04-03T01:00:31;3.50;;;1.00;;
70132;SDS011;57495;49.922;7.966;2023-04-03T01:02:33;3.97;;;1.25;;
70132;SDS011;57495;49.922;7.966;2023-04-03T01:04:35;4.30;;;1.08;;
70132;SDS011;57495;49.922;7.966;2023-04-03T01:06:38;3.60;;;0.90;;
70132;SDS011;57495;49.922;7.966;2023-04-03T01:08:40;4.88;;;1.00;;
70132;SDS011;57495;49.922;7.966;2023-04-03T01:10:41;4.53;;;1.23;;
70132;SDS011;57495;49.922;7.966;2023-04-03T01:12:45;3.47;;;0.90;;
70132;SDS011;57495;49.922;7.966;2023-04-03T01:14:48;4.40;;;0.82;;
70132;SDS011;57495;49.922;7.966;2023-04-03T01:16:52;4.07;;;1.33;;
70132;SDS011;57495;49.922;7.966;2023-04-03T01:18:54;4.72;;;1.20;;
70132;SDS011;57495;49.922;7.966;2023-04-03T01:23:30;4.90;;;1.10;;
70132;SDS011;57495;49.922;7.966;2023-04-03T01:25:38;4.35;;;1.15;;
70132;SDS011;57495;49.922;7.966;2023-04-03T01:27:42;3.83;;;0.82;;
70132;SDS011;57495;49.922;7.966;2023-04-03T01:29:44;5.13;;;0.90;;
70132;SDS011;57495;49.922;7.966;2023-04-03T01:31:49;3.60;;;1.30;;
70132;SDS011;57495;49.922;7.966;2023-04-03T01:33:53;3.92;;;0.60;;
70132;SDS011;57495;49.922;7.966;2023-04-03T01:35:55;4.45;;;1.02;;
70132;SDS011;57495;49.922;7.966;2023-04-03T01:37:56;2.42;;;0.82;;
70132;SDS011;57495;49.922;7.966;2023-04-03T01:39:57;4.60;;;0.82;;
70132;SDS011;57495;49.922;7.966;2023-04-03T01:41:59;2.90;;;0.50;;
70132;SDS011;57495;49.922;7.966;2023-04-03T01:44:00;3.53;;;0.70;;
70132;SDS011;57495;49.922;7.966;2023-04-03T01:46:02;4.03;;;0.90;;
70132;SDS011;57495;49.922;7.966;2023-04-03T01:48:05;3.55;;;0.88;;
70132;SDS011;57495;49.922;7.966;2023-04-03T01:50:07;6.07;;;0.88;;
70132;SDS011;57495;49.922;7.966;2023-04-03T01:52:08;3.63;;;0.60;;
70132;SDS011;57495;49.922;7.966;2023-04-03T01:54:10;2.88;;;0.40;;
70132;SDS011;57495;49.922;7.966;2023-04-03T01:56:11;3.70;;;0.65;;
70132;SDS011;57495;49.922;7.966;2023-04-03T01:58:13;4.82;;;0.60;;
70132;SDS011;57495;49.922;7.966;2023-04-03T02:00:14;4.75;;;0.80;;
70132;SDS011;57495;49.922;7.966;2023-04-03T02:02:16;3.30;;;0.70;;
70132;SDS011;57495;49.922;7.966;2023-04-03T02:04:20;3.08;;;0.50;;
70132;SDS011;57495;49.922;7.966;2023-04-03T02:06:21;4.05;;;0.70;;
70132;SDS011;57495;49.922;7.966;2023-04-03T02:08:23;4.75;;;1.00;;
70132;SDS011;57495;49.922;7.966;2023-04-03T02:10:24;3.13;;;0.70;;
70132;SDS011;57495;49.922;7.966;2023-04-03T02:12:26;5.80;;;0.57;;
70132;SDS011;57495;49.922;7.966;2023-04-03T02:14:27;3.65;;;0.50;;
70132;SDS011;57495;49.922;7.966;2023-04-03T02:16:29;3.25;;;0.63;;
70132;SDS011;57495;49.922;7.966;2023-04-03T02:18:31;2.80;;;0.47;;
70132;SDS011;57495;49.922;7.966;2023-04-03T02:20:34;3.47;;;0.50;;
70132;SDS011;57495;49.922;7.966;2023-04-03T02:22:35;4.37;;;0.70;;
70132;SDS011;57495;49.922;7.966;2023-04-03T02:24:37;2.95;;;0.50;;
70132;SDS011;57495;49.922;7.966;2023-04-03T02:26:40;5.15;;;0.70;;
70132;SDS011;57495;49.922;7.966;2023-04-03T02:28:41;4.90;;;0.82;;
70132;SDS011;57495;49.922;7.966;2023-04-03T02:30:43;4.45;;;1.23;;
70132;SDS011;57495;49.922;7.966;2023-04-03T02:32:45;6.10;;;0.73;;
70132;SDS011;57495;49.922;7.966;2023-04-03T02:34:46;4.07;;;0.93;;
70132;SDS011;57495;49.922;7.966;2023-04-03T02:36:49;2.95;;;0.73;;
70132;SDS011;57495;49.922;7.966;2023-04-03T02:38:50;4.45;;;0.70;;
70132;SDS011;57495;49.922;7.966;2023-04-03T02:40:52;3.00;;;0.63;;
70132;SDS011;57495;49.922;7.966;2023-04-03T02:42:53;3.57;;;0.60;;
70132;SDS011;57495;49.922;7.966;2023-04-03T02:44:54;3.67;;;0.70;;
70132;SDS011;57495;49.922;7.966;2023-04-03T02:46:56;4.72;;;1.10;;
70132;SDS011;57495;49.922;7.966;2023-04-03T02:48:58;4.53;;;0.88;;
70132;SDS011;57495;49.922;7.966;2023-04-03T02:51:00;3.53;;;1.13;;
70132;SDS011;57495;49.922;7.966;2023-04-03T02:53:03;4.77;;;0.60;;
70132;SDS011;57495;49.922;7.966;2023-04-03T02:55:05;4.70;;;1.00;;
70132;SDS011;57495;49.922;7.966;2023-04-03T02:57:07;3.28;;;0.70;;
70132;SDS011;57495;49.922;7.966;2023-04-03T02:59:09;3.33;;;0.95;;
70132;SDS011;57495;49.922;7.966;2023-04-03T03:01:11;3.00;;;0.68;;
70132;SDS011;57495;49.922;7.966;2023-04-03T03:03:12;6.70;;;0.60;;
70132;SDS011;57495;49.922;7.966;2023-04-03T03:05:15;3.50;;;0.52;;
70132;SDS011;57495;49.922;7.966;2023-04-03T03:07:16;5.50;;;1.00;;
70132;SDS011;57495;49.922;7.966;2023-04-03T03:09:19;2.42;;;0.52;;
70132;SDS011;57495;49.922;7.966;2023-04-03T03:11:21;3.83;;;1.17;;
70132;SDS011;57495;49.922;7.966;2023-04-03T03:13:22;4.80;;;0.80;;
70132;SDS011;57495;49.922;7.966;2023-04-03T03:15:24;3.67;;;0.70;;
70132;SDS011;57495;49.922;7.966;2023-04-03T03:17:25;3.78;;;0.80;;
70132;SDS011;57495;49.922;7.966;2023-04-03T03:19:26;4.38;;;0.80;;
70132;SDS011;57495;49.922;7.966;2023-04-03T03:21:28;5.45;;;0.75;;
70132;SDS011;57495;49.922;7.966;2023-04-03T03:23:30;4.63;;;0.70;;
70132;SDS011;57495;49.922;7.966;2023-04-03T03:25:34;3.88;;;0.75;;
70132;SDS011;57495;49.922;7.966;2023-04-03T03:27:38;2.83;;;0.80;;
70132;SDS011;57495;49.922;7.966;2023-04-03T03:29:40;4.80;;;1.23;;
70132;SDS011;57495;49.922;7.966;2023-04-03T03:31:41;3.83;;;0.80;;
70132;SDS011;57495;49.922;7.966;2023-04-03T03:33:43;4.20;;;0.80;;
70132;SDS011;57495;49.922;7.966;2023-04-03T03:35:44;3.95;;;0.75;;
70132;SDS011;57495;49.922;7.966;2023-04-03T03:37:46;3.13;;;0.73;;
70132;SDS011;57495;49.922;7.966;2023-04-03T03:39:47;4.28;;;0.70;;
70132;SDS011;57495;49.922;7.966;2023-04-03T03:41:50;4.68;;;0.70;;
70132;SDS011;57495;49.922;7.966;2023-04-03T03:43:53;6.77;;;1.03;;
70132;SDS011;57495;49.922;7.966;2023-04-03T03:45:54;3.30;;;0.68;;
70132;SDS011;57495;49.922;7.966;2023-04-03T03:47:56;3.22;;;0.80;;
70132;SDS011;57495;49.922;7.966;2023-04-03T03:49:57;5.57;;;0.82;;
70132;SDS011;57495;49.922;7.966;2023-04-03T03:51:59;4.90;;;0.77;;
70132;SDS011;57495;49.922;7.966;2023-04-03T03:54:00;4.60;;;0.70;;
70132;SDS011;57495;49.922;7.966;2023-04-03T03:56:01;4.18;;;0.90;;
70132;SDS011;57495;49.922;7.966;2023-04-03T03:58:04;3.58;;;0.50;;
70132;SDS011;57495;49.922;7.966;2023-04-03T04:00:06;3.28;;;0.63;;
70132;SDS011;57495;49.922;7.966;2023-04-03T04:02:08;4.25;;;0.65;;
70132;SDS011;57495;49.922;7.966;2023-04-03T04:04:10;4.33;;;0.63;;
70132;SDS011;57495;49.922;7.966;2023-04-03T04:06:11;4.05;;;0.98;;
70132;SDS011;57495;49.922;7.966;2023-04-03T04:08:13;4.88;;;0.93;;
70132;SDS011;57495;49.922;7.966;2023-04-03T04:10:15;4.32;;;0.95;;
70132;SDS011;57495;49.922;7.966;2023-04-03T04:12:16;4.85;;;0.93;;
70132;SDS011;57495;49.922;7.966;2023-04-03T04:14:19;4.77;;;0.80;;
70132;SDS011;57495;49.922;7.966;2023-04-03T04:16:21;5.22;;;0.57;;
70132;SDS011;57495;49.922;7.966;2023-04-03T04:18:22;7.60;;;0.93;;
70132;SDS011;57495;49.922;7.966;2023-04-03T04:20:24;2.60;;;0.50;;
70132;SDS011;57495;49.922;7.966;2023-04-03T04:22:25;3.25;;;0.70;;
70132;SDS011;57495;49.922;7.966;2023-04-03T04:24:27;3.93;;;0.60;;
70132;SDS011;57495;49.922;7.966;2023-04-03T04:26:28;4.55;;;0.70;;
70132;SDS011;57495;49.922;7.966;2023-04-03T04:28:29;4.38;;;0.90;;
70132;SDS011;57495;49.922;7.966;2023-04-03T04:30:32;3.95;;;0.95;;
70132;SDS011;57495;49.922;7.966;2023-04-03T04:32:34;3.80;;;0.90;;
70132;SDS011;57495;49.922;7.966;2023-04-03T04:34:35;3.47;;;0.60;;
70132;SDS011;57495;49.922;7.966;2023-04-03T04:36:37;4.35;;;0.70;;
70132;SDS011;57495;49.922;7.966;2023-04-03T04:38:38;7.15;;;0.52;;
70132;SDS011;57495;49.922;7.966;2023-04-03T04:40:39;5.95;;;0.57;;
70132;SDS011;57495;49.922;7.966;2023-04-03T04:42:41;3.90;;;0.80;;
70132;SDS011;57495;49.922;7.966;2023-04-03T04:44:42;4.60;;;0.77;;
70132;SDS011;57495;49.922;7.966;2023-04-03T04:46:46;4.63;;;0.88;;
70132;SDS011;57495;49.922;7.966;2023-04-03T04:48:47;4.72;;;0.77;;
70132;SDS011;57495;49.922;7.966;2023-04-03T04:50:49;5.88;;;0.68;;
70132;SDS011;57495;49.922;7.966;2023-04-03T04:52:50;4.95;;;0.52;;
70132;SDS011;57495;49.922;7.966;2023-04-03T04:54:52;3.37;;;0.60;;
70132;SDS011;57495;49.922;7.966;2023-04-03T04:56:53;4.75;;;0.70;;
70132;SDS011;57495;49.922;7.966;2023-04-03T04:58:55;4.93;;;0.70;;
70132;SDS011;57495;49.922;7.966;2023-04-03T05:00:59;4.40;;;0.50;;
70132;SDS011;57495;49.922;7.966;2023-04-03T05:03:02;2.70;;;0.40;;
70132;SDS011;57495;49.922;7.966;2023-04-03T05:05:04;5.30;;;0.43;;
70132;SDS011;57495;49.922;7.966;2023-04-03T05:07:05;4.72;;;0.60;;
70132;SDS011;57495;49.922;7.966;2023-04-03T05:09:07;3.42;;;0.85;;
70132;SDS011;57495;49.922;7.966;2023-04-03T05:11:09;5.38;;;0.43;;
70132;SDS011;57495;49.922;7.966;2023-04-03T05:13:11;7.90;;;0.70;;
70132;SDS011;57495;49.922;7.966;2023-04-03T05:15:12;7.57;;;1.27;;
70132;SDS011;57495;49.922;7.966;2023-04-03T05:17:14;5.45;;;0.80;;
70132;SDS011;57495;49.922;7.966;2023-04-03T05:19:17;5.90;;;0.88;;
70132;SDS011;57495;49.922;7.966;2023-04-03T05:21:18;5.25;;;0.80;;
70132;SDS011;57495;49.922;7.966;2023-04-03T05:23:19;5.38;;;0.68;;
70132;SDS011;57495;49.922;7.966;2023-04-03T05:25:21;7.10;;;1.33;;
70132;SDS011;57495;49.922;7.966;2023-04-03T05:27:22;4.75;;;0.60;;
70132;SDS011;57495;49.922;7.966;2023-04-03T05:29:24;4.53;;;0.57;;
70132;SDS011;57495;49.922;7.966;2023-04-03T05:31:25;3.47;;;0.80;;
70132;SDS011;57495;49.922;7.966;2023-04-03T05:33:29;4.35;;;0.60;;
70132;SDS011;57495;49.922;7.966;2023-04-03T05:35:32;3.57;;;0.60;;
70132;SDS011;57495;49.922;7.966;2023-04-03T05:37:33;4.95;;;0.60;;
70132;SDS011;57495;49.922;7.966;2023-04-03T05:39:35;4.45;;;0.68;;
70132;SDS011;57495;49.922;7.966;2023-04-03T05:41:38;7.22;;;0.80;;
70132;SDS011;57495;49.922;7.966;2023-04-03T05:43:39;6.05;;;0.93;;
70132;SDS011;57495;49.922;7.966;2023-04-03T05:45:42;7.50;;;0.90;;
70132;SDS011;57495;49.922;7.966;2023-04-03T05:47:44;5.35;;;0.68;;
70132;SDS011;57495;49.922;7.966;2023-04-03T05:49:45;5.68;;;0.50;;
70132;SDS011;57495;49.922;7.966;2023-04-03T05:51:48;4.97;;;0.70;;
70132;SDS011;57495;49.922;7.966;2023-04-03T05:53:52;3.75;;;0.60;;
70132;SDS011;57495;49.922;7.966;2023-04-03T05:55:59;4.00;;;0.80;;
70132;SDS011;57495;49.922;7.966;2023-04-03T05:58:01;4.53;;;0.65;;
70132;SDS011;57495;49.922;7.966;2023-04-03T06:00:03;7.10;;;0.70;;
70132;SDS011;57495;49.922;7.966;2023-04-03T06:02:05;6.95;;;0.68;;
70132;SDS011;57495;49.922;7.966;2023-04-03T06:04:07;4.68;;;0.57;;
70132;SDS011;57495;49.922;7.966;2023-04-03T06:06:10;3.80;;;0.70;;
70132;SDS011;57495;49.922;7.966;2023-04-03T06:08:15;6.57;;;0.80;;
70132;SDS011;57495;49.922;7.966;2023-04-03T06:10:16;4.05;;;0.70;;
70132;SDS011;57495;49.922;7.966;2023-04-03T06:12:20;4.85;;;0.68;;
70132;SDS011;57495;49.922;7.966;2023-04-03T06:14:21;3.05;;;0.60;;
70132;SDS011;57495;49.922;7.966;2023-04-03T06:16:22;3.73;;;0.70;;
70132;SDS011;57495;49.922;7.966;2023-04-03T06:18:24;3.47;;;0.45;;
70132;SDS011;57495;49.922;7.966;2023-04-03T06:20:26;4.45;;;1.10;;
70132;SDS011;57495;49.922;7.966;2023-04-03T06:22:27;5.05;;;1.20;;
70132;SDS011;57495;49.922;7.966;2023-04-03T06:24:31;6.75;;;0.88;;
70132;SDS011;57495;49.922;7.966;2023-04-03T06:26:33;4.43;;;0.70;;
70132;SDS011;57495;49.922;7.966;2023-04-03T06:28:34;6.97;;;0.82;;
70132;SDS011;57495;49.922;7.966;2023-04-03T06:30:36;6.07;;;0.90;;
70132;SDS011;57495;49.922;7.966;2023-04-03T06:32:37;4.20;;;0.85;;
70132;SDS011;57495;49.922;7.966;2023-04-03T06:34:39;6.28;;;0.70;;
70132;SDS011;57495;49.922;7.966;2023-04-03T06:36:41;3.40;;;0.60;;
70132;SDS011;57495;49.922;7.966;2023-04-03T06:38:43;4.05;;;0.60;;
70132;SDS011;57495;49.922;7.966;2023-04-03T06:40:46;4.57;;;0.82;;
70132;SDS011;57495;49.922;7.966;2023-04-03T06:42:47;4.50;;;0.70;;
70132;SDS011;57495;49.922;7.966;2023-04-03T06:44:49;3.40;;;0.70;;
70132;SDS011;57495;49.922;7.966;2023-04-03T06:46:50;6.13;;;1.17;;
70132;SDS011;57495;49.922;7.966;2023-04-03T06:48:52;4.57;;;0.80;;
70132;SDS011;57495;49.922;7.966;2023-04-03T06:50:55;4.97;;;1.02;;
70132;SDS011;57495;49.922;7.966;2023-04-03T06:52:56;4.13;;;0.60;;
70132;SDS011;57495;49.922;7.966;2023-04-03T06:54:58;8.15;;;1.08;;
70132;SDS011;57495;49.922;7.966;2023-04-03T06:57:01;4.33;;;0.80;;
70132;SDS011;57495;49.922;7.966;2023-04-03T06:59:03;4.20;;;0.82;;
70132;SDS011;57495;49.922;7.966;2023-04-03T07:01:04;3.80;;;0.63;;
70132;SDS011;57495;49.922;7.966;2023-04-03T07:03:06;4.35;;;0.70;;
70132;SDS011;57495;49.922;7.966;2023-04-03T07:05:07;4.20;;;0.73;;
70132;SDS011;57495;49.922;7.966;2023-04-03T07:07:10;4.53;;;0.67;;
70132;SDS011;57495;49.922;7.966;2023-04-03T07:09:11;6.25;;;1.23;;
70132;SDS011;57495;49.922;7.966;2023-04-03T07:11:13;6.28;;;0.80;;
70132;SDS011;57495;49.922;7.966;2023-04-03T07:13:16;4.57;;;1.00;;
70132;SDS011;57495;49.922;7.966;2023-04-03T07:15:17;3.88;;;1.00;;
70132;SDS011;57495;49.922;7.966;2023-04-03T07:17:19;6.27;;;0.93;;
70132;SDS011;57495;49.922;7.966;2023-04-03T07:19:20;5.55;;;0.85;;
70132;SDS011;57495;49.922;7.966;2023-04-03T07:21:24;6.63;;;0.90;;
70132;SDS011;57495;49.922;7.966;2023-04-03T07:23:26;4.97;;;0.70;;
70132;SDS011;57495;49.922;7.966;2023-04-03T07:25:27;7.45;;;0.77;;
70132;SDS011;57495;49.922;7.966;2023-04-03T07:27:28;7.77;;;1.00;;
70132;SDS011;57495;49.922;7.966;2023-04-03T07:29:31;6.28;;;0.70;;
70132;SDS011;57495;49.922;7.966;2023-04-03T07:31:33;4.43;;;0.70;;
70132;SDS011;57495;49.922;7.966;2023-04-03T07:33:35;6.45;;;0.82;;
70132;SDS011;57495;49.922;7.966;2023-04-03T07:35:37;6.25;;;0.90;;
70132;SDS011;57495;49.922;7.966;2023-04-03T07:37:38;6.73;;;0.80;;
70132;SDS011;57495;49.922;7.966;2023-04-03T07:39:39;3.90;;;0.65;;
70132;SDS011;57495;49.922;7.966;2023-04-03T07:41:44;6.35;;;1.05;;
70132;SDS011;57495;49.922;7.966;2023-04-03T07:43:46;5.10;;;0.65;;
70132;SDS011;57495;49.922;7.966;2023-04-03T07:45:51;4.57;;;0.68;;
70132;SDS011;57495;49.922;7.966;2023-04-03T07:47:54;5.40;;;1.07;;
70132;SDS011;57495;49.922;7.966;2023-04-03T07:49:55;4.35;;;0.70;;
70132;SDS011;57495;49.922;7.966;2023-04-03T07:51:58;6.05;;;0.63;;
70132;SDS011;57495;49.922;7.966;2023-04-03T07:53:59;5.72;;;0.95;;
70132;SDS011;57495;49.922;7.966;2023-04-03T07:56:01;4.28;;;0.88;;
70132;SDS011;57495;49.922;7.966;2023-04-03T07:58:02;5.60;;;0.73;;
70132;SDS011;57495;49.922;7.966;2023-04-03T08:00:05;5.13;;;0.90;;
70132;SDS011;57495;49.922;7.966;2023-04-03T08:02:09;4.75;;;1.02;;
70132;SDS011;57495;49.922;7.966;2023-04-03T08:04:11;4.47;;;0.70;;
70132;SDS011;57495;49.922;7.966;2023-04-03T08:06:12;6.25;;;2.13;;
70132;SDS011;57495;49.922;7.966;2023-04-03T08:08:16;5.33;;;0.70;;
70132;SDS011;57495;49.922;7.966;2023-04-03T08:10:19;5.43;;;0.95;;
70132;SDS011;57495;49.922;7.966;2023-04-03T08:12:21;4.07;;;0.82;;
70132;SDS011;57495;49.922;7.966;2023-04-03T08:14:22;5.97;;;1.08;;
70132;SDS011;57495;49.922;7.966;2023-04-03T08:16:24;5.22;;;1.23;;
70132;SDS011;57495;49.922;7.966;2023-04-03T08:18:28;4.30;;;1.00;;
70132;SDS011;57495;49.922;7.966;2023-04-03T08:20:29;4.43;;;1.00;;
70132;SDS011;57495;49.922;7.966;2023-04-03T08:22:31;6.93;;;1.13;;
70132;SDS011;57495;49.922;7.966;2023-04-03T08:24:32;3.90;;;0.70;;
70132;SDS011;57495;49.922;7.966;2023-04-03T08:26:34;4.95;;;1.20;;
70132;SDS011;57495;49.922;7.966;2023-04-03T08:28:36;7.03;;;1.10;;
70132;SDS011;57495;49.922;7.966;2023-04-03T08:30:38;4.32;;;0.70;;
70132;SDS011;57495;49.922;7.966;2023-04-03T08:32:41;4.18;;;1.17;;
70132;SDS011;57495;49.922;7.966;2023-04-03T08:34:45;4.80;;;0.63;;
70132;SDS011;57495;49.922;7.966;2023-04-03T08:36:46;3.72;;;0.90;;
70132;SDS011;57495;49.922;7.966;2023-04-03T08:38:48;4.13;;;0.70;;
70132;SDS011;57495;49.922;7.966;2023-04-03T08:40:59;5.25;;;1.00;;
70132;SDS011;57495;49.922;7.966;2023-04-03T08:43:04;4.95;;;1.10;;
70132;SDS011;57495;49.922;7.966;2023-04-03T08:45:26;4.93;;;0.93;;
70132;SDS011;57495;49.922;7.966;2023-04-03T08:47:36;3.17;;;1.00;;
70132;SDS011;57495;49.922;7.966;2023-04-03T08:49:41;3.33;;;0.70;;
70132;SDS011;57495;49.922;7.966;2023-04-03T08:51:48;3.80;;;0.75;;
70132;SDS011;57495;49.922;7.966;2023-04-03T08:53:53;4.28;;;0.80;;
70132;SDS011;57495;49.922;7.966;2023-04-03T08:55:59;4.55;;;1.02;;
70132;SDS011;57495;49.922;7.966;2023-04-03T08:58:04;4.30;;;1.00;;
70132;SDS011;57495;49.922;7.966;2023-04-03T09:00:14;5.27;;;1.00;;
70132;SDS011;57495;49.922;7.966;2023-04-03T09:02:23;5.43;;;0.70;;
70132;SDS011;57495;49.922;7.966;2023-04-03T09:04:29;15.85;;;2.65;;
70132;SDS011;57495;49.922;7.966;2023-04-03T09:06:32;8.05;;;1.40;;
70132;SDS011;57495;49.922;7.966;2023-04-03T09:08:37;7.50;;;1.33;;
70132;SDS011;57495;49.922;7.966;2023-04-03T09:10:44;4.87;;;0.93;;
70132;SDS011;57495;49.922;7.966;2023-04-03T09:12:46;4.00;;;0.80;;
70132;SDS011;57495;49.922;7.966;2023-04-03T09:14:55;7.03;;;1.40;;
70132;SDS011;57495;49.922;7.966;2023-04-03T09:17:03;4.28;;;0.90;;
70132;SDS011;57495;49.922;7.966;2023-04-03T09:19:15;5.18;;;1.00;;
70132;SDS011;57495;49.922;7.966;2023-04-03T09:21:24;5.70;;;1.03;;
70132;SDS011;57495;49.922;7.966;2023-04-03T09:23:30;5.35;;;1.00;;
70132;SDS011;57495;49.922;7.966;2023-04-03T09:25:36;4.55;;;1.00;;
70132;SDS011;57495;49.922;7.966;2023-04-03T09:27:39;3.30;;;0.75;;
70132;SDS011;57495;49.922;7.966;2023-04-03T09:29:42;7.72;;;1.77;;
70132;SDS011;57495;49.922;7.966;2023-04-03T09:31:47;4.07;;;1.00;;
70132;SDS011;57495;49.922;7.966;2023-04-03T09:33:50;6.20;;;1.20;;
70132;SDS011;57495;49.922;7.966;2023-04-03T09:35:53;5.15;;;0.98;;
70132;SDS011;57495;49.922;7.966;2023-04-03T09:37:58;3.95;;;1.00;;
70132;SDS011;57495;49.922;7.966;2023-04-03T09:40:00;5.97;;;1.38;;
70132;SDS011;57495;49.922;7.966;2023-04-03T09:42:03;4.67;;;1.23;;
70132;SDS011;57495;49.922;7.966;2023-04-03T09:44:18;4.68;;;1.20;;
70132;SDS011;57495;49.922;7.966;2023-04-03T09:46:28;5.13;;;1.15;;
70132;SDS011;57495;49.922;7.966;2023-04-03T09:48:31;4.32;;;0.90;;
70132;SDS011;57495;49.922;7.966;2023-04-03T09:50:33;4.15;;;0.82;;
70132;SDS011;57495;49.922;7.966;2023-04-03T09:52:35;3.30;;;0.60;;
70132;SDS011;57495;49.922;7.966;2023-04-03T09:54:37;5.97;;;1.27;;
70132;SDS011;57495;49.922;7.966;2023-04-03T09:56:40;11.32;;;2.53;;
70132;SDS011;57495;49.922;7.966;2023-04-03T09:58:52;8.02;;;1.70;;
70132;SDS011;57495;49.922;7.966;2023-04-03T10:01:20;6.82;;;1.30;;
70132;SDS011;57495;49.922;7.966;2023-04-03T10:03:24;4.43;;;0.80;;
70132;SDS011;57495;49.922;7.966;2023-04-03T10:05:32;7.38;;;1.77;;
70132;SDS011;57495;49.922;7.966;2023-04-03T10:07:35;4.78;;;1.08;;
70132;SDS011;57495;49.922;7.966;2023-04-03T10:09:38;4.80;;;1.00;;
70132;SDS011;57495;49.922;7.966;2023-04-03T10:11:47;4.43;;;1.45;;
70132;SDS011;57495;49.922;7.966;2023-04-03T10:14:01;4.13;;;1.23;;
70132;SDS011;57495;49.922;7.966;2023-04-03T10:16:06;4.53;;;1.13;;
70132;SDS011;57495;49.922;7.966;2023-04-03T10:18:15;6.10;;;1.48;;
70132;SDS011;57495;49.922;7.966;2023-04-03T10:20:33;5.05;;;1.77;;
70132;SDS011;57495;49.922;7.966;2023-04-03T10:22:39;5.22;;;1.02;;
70132;SDS011;57495;49.922;7.966;2023-04-03T10:24:51;3.90;;;1.10;;
70132;SDS011;57495;49.922;7.966;2023-04-03T10:27:01;4.45;;;1.23;;
70132;SDS011;57495;49.922;7.966;2023-04-03T10:29:11;5.10;;;1.15;;
70132;SDS011;57495;49.922;7.966;2023-04-03T10:31:24;5.65;;;1.40;;
70132;SDS011;57495;49.922;7.966;2023-04-03T10:33:37;4.45;;;0.80;;
70132;SDS011;57495;49.922;7.966;2023-04-03T10:35:49;4.70;;;1.17;;
70132;SDS011;57495;49.922;7.966;2023-04-03T10:38:01;5.00;;;1.13;;
70132;SDS011;57495;49.922;7.966;2023-04-03T10:40:14;6.95;;;1.92;;
70132;SDS011;57495;49.922;7.966;2023-04-03T10:42:24;5.03;;;1.60;;
70132;SDS011;57495;49.922;7.966;2023-04-03T10:44:35;5.28;;;1.10;;
70132;SDS011;57495;49.922;7.966;2023-04-03T10:46:43;4.77;;;1.30;;
70132;SDS011;57495;49.922;7.966;2023-04-03T10:48:51;4.65;;;1.25;;
70132;SDS011;57495;49.922;7.966;2023-04-03T10:51:06;5.25;;;1.40;;
70132;SDS011;57495;49.922;7.966;2023-04-03T10:53:19;6.13;;;1.20;;
70132;SDS011;57495;49.922;7.966;2023-04-03T10:55:31;4.85;;;1.58;;
70132;SDS011;57495;49.922;7.966;2023-04-03T10:57:36;7.30;;;1.40;;
70132;SDS011;57495;49.922;7.966;2023-04-03T10:59:40;4.43;;;1.23;;
70132;SDS011;57495;49.922;7.966;2023-04-03T11:01:46;8.95;;;1.38;;
70132;SDS011;57495;49.922;7.966;2023-04-03T11:03:52;30.17;;;12.93;;
70132;SDS011;57495;49.922;7.966;2023-04-03T11:05:56;12.93;;;6.68;;
70132;SDS011;57495;49.922;7.966;2023-04-03T11:08:02;172.90;;;80.43;;
70132;SDS011;57495;49.922;7.966;2023-04-03T11:10:10;228.30;;;153.07;;
70132;SDS011;57495;49.922;7.966;2023-04-03T11:12:17;158.05;;;115.05;;
70132;SDS011;57495;49.922;7.966;2023-04-03T11:14:24;58.33;;;46.97;;
70132;SDS011;57495;49.922;7.966;2023-04-03T11:16:29;265.38;;;144.02;;
70132;SDS011;57495;49.922;7.966;2023-04-03T11:18:35;45.17;;;40.63;;
70132;SDS011;57495;49.922;7.966;2023-04-03T11:20:41;56.83;;;52.65;;
70132;SDS011;57495;49.922;7.966;2023-04-03T11:22:48;38.50;;;35.42;;
70132;SDS011;57495;49.922;7.966;2023-04-03T11:24:55;192.95;;;98.70;;
70132;SDS011;57495;49.922;7.966;2023-04-03T11:27:03;5.47;;;2.33;;
70132;SDS011;57495;49.922;7.966;2023-04-03T11:29:07;7.00;;;2.10;;
70132;SDS011;57495;49.922;7.966;2023-04-03T11:31:21;5.95;;;1.58;;
70132;SDS011;57495;49.922;7.966;2023-04-03T11:33:39;8.20;;;1.90;;
70132;SDS011;57495;49.922;7.966;2023-04-03T11:35:47;6.00;;;1.80;;
70132;SDS011;57495;49.922;7.966;2023-04-03T11:37:51;4.68;;;1.40;;
70132;SDS011;57495;49.922;7.966;2023-04-03T11:39:54;5.03;;;1.30;;
70132;SDS011;57495;49.922;7.966;2023-04-03T11:42:12;4.00;;;1.30;;
70132;SDS011;57495;49.922;7.966;2023-04-03T11:44:26;4.68;;;1.63;;
70132;SDS011;57495;49.922;7.966;2023-04-03T11:46:49;4.95;;;0.95;;
70132;SDS011;57495;49.922;7.966;2023-04-03T11:48:53;3.72;;;0.80;;
70132;SDS011;57495;49.922;7.966;2023-04-03T11:50:56;4.60;;;1.00;;
70132;SDS011;57495;49.922;7.966;2023-04-03T11:52:59;4.80;;;1.08;;
70132;SDS011;57495;49.922;7.966;2023-04-03T11:55:02;3.88;;;1.20;;
70132;SDS011;57495;49.922;7.966;2023-04-03T11:59:38;5.82;;;1.75;;
70132;SDS011;57495;49.922;7.966;2023-04-03T12:01:43;4.73;;;1.30;;
70132;SDS011;57495;49.922;7.966;2023-04-03T12:03:57;4.72;;;1.27;;
70132;SDS011;57495;49.922;7.966;2023-04-03T12:08:44;5.00;;;1.30;;
70132;SDS011;57495;49.922;7.966;2023-04-03T12:10:55;3.60;;;1.35;;
70132;SDS011;57495;49.922;7.966;2023-04-03T12:13:16;5.67;;;1.53;;
70132;SDS011;57495;49.922;7.966;2023-04-03T12:15:22;4.68;;;1.40;;
70132;SDS011;57495;49.922;7.966;2023-04-03T12:17:39;4.30;;;1.50;;
70132;SDS011;57495;49.922;7.966;2023-04-03T12:19:42;5.68;;;1.60;;
70132;SDS011;57495;49.922;7.966;2023-04-03T12:22:06;4.80;;;1.80;;
70132;SDS011;57495;49.922;7.966;2023-04-03T12:24:23;6.93;;;1.40;;
70132;SDS011;57495;49.922;7.966;2023-04-03T12:26:26;3.63;;;0.98;;
70132;SDS011;57495;49.922;7.966;2023-04-03T12:28:29;4.82;;;1.70;;
70132;SDS011;57495;49.922;7.966;2023-04-03T12:30:30;5.45;;;1.20;;
70132;SDS011;57495;49.922;7.966;2023-04-03T12:32:37;5.28;;;1.30;;